createdAt,value
2023-08-11T00:02:00.136Z,18.55
2023-08-11T00:04:44.206Z,18.41
2023-08-11T00:07:28.806Z,18.67
2023-08-11T00:10:13.745Z,18.23
2023-08-11T00:12:57.978Z,18.53
2023-08-11T00:15:42.454Z,18.26
2023-08-11T00:18:28.007Z,18.60
2023-08-11T00:21:13.950Z,18.41
2023-08-11T00:23:57.989Z,18.30
2023-08-11T00:26:42.198Z,18.03
2023-08-11T00:29:26.416Z,18.17
2023-08-11T00:32:11.089Z,18.03
2023-08-11T00:34:56.628Z,18.17
2023-08-11T00:37:40.906Z,17.64
2023-08-11T00:40:25.063Z,17.57
2023-08-11T00:43:10.054Z,17.55
2023-08-11T00:45:54.660Z,17.43
2023-08-11T00:48:39.391Z,17.37
2023-08-11T00:51:26.781Z,17.12
2023-08-11T00:54:13.198Z,17.55
2023-08-11T00:56:58.137Z,17.18
2023-08-11T00:59:42.978Z,17.27
2023-08-11T01:02:29.076Z,17.31
2023-08-11T01:05:15.562Z,17.15
2023-08-11T01:08:13.897Z,17.07
2023-08-11T01:11:08.647Z,17.19
2023-08-11T01:13:59.306Z,17.06
2023-08-11T01:16:44.725Z,17.08
2023-08-11T01:19:33.838Z,16.86
2023-08-11T01:22:21.379Z,17.07
2023-08-11T01:25:09.461Z,16.89
2023-08-11T01:27:56.465Z,17.27
2023-08-11T01:30:41.121Z,17.17
2023-08-11T01:33:25.150Z,16.95
2023-08-11T01:36:10.917Z,17.13
2023-08-11T01:38:55.124Z,16.85
2023-08-11T01:41:41.482Z,17.02
2023-08-11T01:44:26.682Z,17.05
2023-08-11T01:47:12.031Z,16.97
2023-08-11T01:49:56.180Z,17.05
2023-08-11T01:52:42.800Z,17.18
2023-08-11T01:55:30.339Z,16.91
2023-08-11T01:58:16.230Z,17.24
2023-08-11T02:01:00.384Z,17.28
2023-08-11T02:03:44.510Z,17.38
2023-08-11T02:06:28.746Z,17.33
2023-08-11T02:09:13.844Z,17.40
2023-08-11T02:11:58.373Z,17.42
2023-08-11T02:14:43.850Z,17.33
2023-08-11T02:17:28.096Z,17.29
2023-08-11T02:20:19.435Z,17.40
2023-08-11T02:23:03.530Z,17.41
2023-08-11T02:25:47.867Z,17.68
2023-08-11T02:28:31.855Z,17.63
2023-08-11T02:31:19.764Z,17.59
2023-08-11T02:34:04.052Z,17.76
2023-08-11T02:36:48.530Z,17.47
2023-08-11T02:39:32.800Z,17.35
2023-08-11T02:42:16.846Z,17.46
2023-08-11T02:45:01.319Z,17.73
2023-08-11T02:47:47.519Z,17.66
2023-08-11T02:50:31.645Z,17.52
2023-08-11T02:53:15.889Z,17.60
2023-08-11T02:56:02.309Z,17.89
2023-08-11T02:58:46.907Z,17.71
2023-08-11T03:01:31.157Z,17.71
2023-08-11T03:04:17.697Z,17.86
2023-08-11T03:07:06.751Z,17.69
2023-08-11T03:09:51.991Z,17.84
2023-08-11T03:12:37.237Z,17.70
2023-08-11T03:15:22.185Z,17.73
2023-08-11T03:18:07.123Z,17.72
2023-08-11T03:21:00.497Z,17.46
2023-08-11T03:23:50.798Z,17.53
2023-08-11T03:26:37.023Z,17.63
2023-08-11T03:29:22.861Z,17.85
2023-08-11T03:32:07.976Z,17.58
2023-08-11T03:34:52.325Z,17.74
2023-08-11T03:37:37.907Z,17.96
2023-08-11T03:40:22.485Z,17.76
2023-08-11T03:43:10.119Z,17.38
2023-08-11T03:45:55.491Z,17.61
2023-08-11T03:48:39.784Z,17.85
2023-08-11T03:51:23.957Z,17.82
2023-08-11T03:54:10.927Z,17.76
2023-08-11T03:56:56.007Z,17.75
2023-08-11T03:59:41.527Z,17.92
2023-08-11T04:02:27.814Z,18.02
2023-08-11T04:05:12.442Z,18.10
2023-08-11T04:07:56.664Z,17.77
2023-08-11T04:10:43.512Z,17.92
2023-08-11T04:13:27.686Z,17.97
2023-08-11T04:16:11.925Z,17.83
2023-08-11T04:18:56.073Z,17.88
2023-08-11T04:21:42.155Z,17.92
2023-08-11T04:24:26.363Z,18.14
2023-08-11T04:27:12.081Z,18.14
2023-08-11T04:29:56.359Z,18.03
2023-08-11T04:32:40.724Z,18.15
2023-08-11T04:35:25.479Z,18.15
2023-08-11T04:38:10.635Z,18.18
2023-08-11T04:40:55.636Z,18.11
2023-08-11T04:43:41.280Z,18.35
2023-08-11T04:46:25.622Z,18.52
2023-08-11T04:49:09.903Z,18.49
2023-08-11T04:51:54.170Z,18.56
2023-08-11T04:54:38.333Z,18.45
2023-08-11T04:57:22.611Z,18.39
2023-08-11T05:00:15.407Z,18.55
2023-08-11T05:02:59.670Z,18.26
2023-08-11T05:05:46.266Z,18.63
2023-08-11T05:08:30.464Z,18.49
2023-08-11T05:11:14.585Z,18.97
2023-08-11T05:13:58.868Z,18.68
2023-08-11T05:16:45.141Z,18.92
2023-08-11T05:19:29.288Z,18.83
2023-08-11T05:22:13.877Z,18.97
2023-08-11T05:24:58.484Z,19.03
2023-08-11T05:27:42.736Z,18.80
2023-08-11T05:30:29.198Z,19.03
2023-08-11T05:33:15.151Z,19.29
2023-08-11T05:35:59.480Z,19.31
2023-08-11T05:38:43.550Z,19.35
2023-08-11T05:41:27.752Z,19.46
2023-08-11T05:44:11.808Z,19.77
2023-08-11T05:46:55.931Z,20.16
2023-08-11T05:49:42.190Z,20.16
2023-08-11T05:52:26.345Z,20.32
2023-08-11T05:55:11.226Z,20.13
2023-08-11T05:57:55.429Z,20.36
2023-08-11T06:00:39.693Z,20.25
2023-08-11T06:03:31.142Z,20.41
2023-08-11T06:06:18.168Z,20.03
2023-08-11T06:09:02.258Z,20.33
2023-08-11T06:11:46.556Z,20.21
2023-08-11T06:14:30.854Z,20.41
2023-08-11T06:17:15.065Z,20.47
2023-08-11T06:19:59.860Z,20.48
2023-08-11T06:22:45.538Z,20.50
2023-08-11T06:25:30.136Z,21.06
2023-08-11T06:28:15.535Z,21.53
2023-08-11T06:31:00.084Z,21.40
2023-08-11T06:33:44.308Z,21.72
2023-08-11T06:36:28.478Z,21.62
2023-08-11T06:39:14.325Z,21.77
2023-08-11T06:41:58.489Z,21.45
2023-08-11T06:45:02.534Z,21.62
2023-08-11T06:47:49.606Z,21.87
2023-08-11T06:50:34.019Z,21.60
2023-08-11T06:53:18.777Z,21.80
2023-08-11T06:56:04.349Z,22.05
2023-08-11T06:58:48.635Z,21.92
2023-08-11T07:01:32.831Z,21.87
2023-08-11T07:04:16.987Z,22.09
2023-08-11T07:07:01.102Z,22.01
2023-08-11T07:09:45.377Z,21.90
2023-08-11T07:12:31.022Z,22.02
2023-08-11T07:15:15.386Z,22.14
2023-08-11T07:17:59.552Z,22.06
2023-08-11T07:20:44.346Z,21.92
2023-08-11T07:23:28.777Z,21.97
2023-08-11T07:26:12.902Z,22.67
2023-08-11T07:28:58.577Z,22.52
2023-08-11T07:31:42.773Z,22.79
2023-08-11T07:34:27.001Z,22.38
2023-08-11T07:37:11.616Z,22.35
2023-08-11T07:39:55.955Z,22.56
2023-08-11T07:42:40.148Z,22.41
2023-08-11T07:45:25.892Z,22.94
2023-08-11T07:48:09.966Z,22.79
2023-08-11T07:50:54.302Z,23.40
2023-08-11T07:53:39.604Z,22.97
2023-08-11T07:56:23.796Z,23.38
2023-08-11T07:59:07.955Z,23.45
2023-08-11T08:01:54.322Z,23.57
2023-08-11T08:04:38.420Z,23.86
2023-08-11T08:07:24.673Z,23.66
2023-08-11T08:10:10.654Z,23.76
2023-08-11T08:12:54.942Z,23.82
2023-08-11T08:15:39.367Z,24.23
2023-08-11T08:18:25.252Z,24.30
2023-08-11T08:21:09.715Z,24.19
2023-08-11T08:23:53.949Z,24.32
2023-08-11T08:26:38.345Z,24.53
2023-08-11T08:29:22.616Z,25.07
2023-08-11T08:32:07.243Z,24.41
2023-08-11T08:34:52.910Z,25.10
2023-08-11T08:37:37.267Z,24.95
2023-08-11T08:40:21.394Z,24.95
2023-08-11T08:43:06.210Z,24.70
2023-08-11T08:45:53.180Z,24.98
2023-08-11T08:48:45.680Z,25.27
2023-08-11T08:51:32.140Z,25.17
2023-08-11T08:54:16.639Z,25.93
2023-08-11T08:57:02.354Z,26.01
2023-08-11T08:59:46.578Z,25.25
2023-08-11T09:02:31.880Z,25.40
2023-08-11T09:05:16.443Z,25.84
2023-08-11T09:08:02.173Z,25.79
2023-08-11T09:10:46.540Z,25.75
2023-08-11T09:13:30.622Z,25.52
2023-08-11T09:16:16.852Z,26.06
2023-08-11T09:19:01.195Z,25.81
2023-08-11T09:22:11.548Z,26.59
2023-08-11T09:24:57.329Z,26.28
2023-08-11T09:27:41.399Z,26.54
2023-08-11T09:30:25.555Z,26.17
2023-08-11T09:33:09.803Z,26.18
2023-08-11T09:35:54.964Z,26.23
2023-08-11T09:38:39.204Z,25.98
2023-08-11T09:41:24.938Z,26.30
2023-08-11T09:44:09.521Z,26.27
2023-08-11T09:46:54.678Z,26.41
2023-08-11T09:49:39.080Z,26.56
2023-08-11T09:52:23.480Z,26.57
2023-08-11T09:55:11.376Z,26.52
2023-08-11T09:57:58.939Z,26.77
2023-08-11T10:00:44.385Z,26.47
2023-08-11T10:03:35.066Z,26.50
2023-08-11T10:06:24.008Z,26.64
2023-08-11T10:09:12.793Z,26.68
2023-08-11T10:12:00.995Z,26.84
2023-08-11T10:14:46.551Z,26.46
2023-08-11T10:17:31.157Z,26.87
2023-08-11T10:20:16.832Z,26.71
2023-08-11T10:23:01.815Z,26.93
2023-08-11T10:25:46.788Z,26.63
2023-08-11T10:28:31.530Z,27.06
2023-08-11T10:31:16.927Z,26.87
2023-08-11T10:34:01.283Z,26.84
2023-08-11T10:36:46.321Z,26.76
2023-08-11T10:39:30.398Z,27.09
2023-08-11T10:42:15.872Z,26.97
2023-08-11T10:45:10.890Z,27.20
2023-08-11T10:47:57.258Z,27.15
2023-08-11T10:50:41.734Z,27.21
2023-08-11T10:53:25.874Z,26.85
2023-08-11T10:56:11.928Z,27.18
2023-08-11T10:59:06.814Z,27.37
2023-08-11T11:01:52.392Z,27.69
2023-08-11T11:04:37.834Z,27.63
2023-08-11T11:07:24.488Z,27.41
2023-08-11T11:10:10.184Z,27.47
2023-08-11T11:12:54.283Z,27.50
2023-08-11T11:15:38.506Z,27.56
2023-08-11T11:18:22.678Z,27.55
2023-08-11T11:21:08.261Z,27.91
2023-08-11T11:23:54.197Z,27.78
2023-08-11T11:26:38.681Z,27.68
2023-08-11T11:29:25.560Z,27.50
2023-08-11T11:32:10.016Z,27.82
2023-08-11T11:34:55.701Z,27.53
2023-08-11T11:37:43.207Z,27.66
2023-08-11T11:40:27.297Z,27.78
2023-08-11T11:43:12.975Z,27.96
2023-08-11T11:45:59.486Z,27.73
2023-08-11T11:48:45.795Z,28.17
2023-08-11T11:51:31.761Z,28.34
2023-08-11T11:54:17.251Z,27.88
2023-08-11T11:57:05.218Z,28.09
2023-08-11T11:59:50.608Z,28.16
2023-08-11T12:02:34.679Z,28.37
2023-08-11T12:05:19.491Z,28.13
2023-08-11T12:08:19.524Z,28.31
2023-08-11T12:11:06.492Z,28.35
2023-08-11T12:13:51.002Z,28.06
2023-08-11T12:16:35.389Z,27.90
2023-08-11T12:19:20.811Z,28.04
2023-08-11T12:22:05.420Z,27.68
2023-08-11T12:24:49.842Z,28.23
2023-08-11T12:27:38.499Z,28.47
2023-08-11T12:30:22.631Z,28.55
2023-08-11T12:33:07.813Z,28.48
2023-08-11T12:35:51.992Z,28.64
2023-08-11T12:38:36.673Z,28.11
2023-08-11T12:41:21.412Z,28.66
2023-08-11T12:44:07.772Z,28.18
2023-08-11T12:46:52.101Z,28.03
2023-08-11T12:49:36.650Z,28.56
2023-08-11T12:52:20.805Z,28.45
2023-08-11T12:55:05.716Z,28.33
2023-08-11T12:57:49.971Z,28.54
2023-08-11T13:00:36.433Z,28.58
2023-08-11T13:03:20.599Z,28.32
2023-08-11T13:06:04.963Z,28.57
2023-08-11T13:08:51.220Z,28.72
2023-08-11T13:11:35.739Z,28.38
2023-08-11T13:14:21.947Z,27.51
2023-08-11T13:17:08.183Z,27.55
2023-08-11T13:19:52.272Z,27.86
2023-08-11T13:22:36.557Z,28.05
2023-08-11T13:25:21.025Z,28.00
2023-08-11T13:28:05.828Z,28.21
2023-08-11T13:30:49.873Z,28.46
2023-08-11T13:33:35.832Z,28.27
2023-08-11T13:36:20.076Z,28.57
2023-08-11T13:39:04.513Z,28.19
2023-08-11T13:41:49.083Z,27.99
2023-08-11T13:44:33.602Z,28.39
2023-08-11T13:47:18.321Z,28.59
2023-08-11T13:50:04.318Z,28.66
2023-08-11T13:52:48.425Z,28.66
2023-08-11T13:55:34.312Z,29.19
2023-08-11T13:58:18.397Z,29.14
2023-08-11T14:01:04.510Z,29.21
2023-08-11T14:03:48.515Z,28.84
2023-08-11T14:06:34.014Z,28.58
2023-08-11T14:09:18.113Z,27.89
2023-08-11T14:12:02.135Z,28.82
2023-08-11T14:14:46.359Z,28.76
2023-08-11T14:17:30.593Z,29.72
2023-08-11T14:20:14.820Z,28.99
2023-08-11T14:23:00.480Z,28.06
2023-08-11T14:25:46.370Z,28.64
2023-08-11T14:28:30.676Z,28.53
2023-08-11T14:31:14.846Z,28.69
2023-08-11T14:33:59.070Z,29.18
2023-08-11T14:36:43.128Z,28.70
2023-08-11T14:39:28.736Z,28.96
2023-08-11T14:42:12.946Z,28.92
2023-08-11T14:44:57.012Z,28.92
2023-08-11T14:47:42.134Z,29.05
2023-08-11T14:50:26.336Z,28.89
2023-08-11T14:53:10.374Z,29.17
2023-08-11T14:55:55.918Z,29.10
2023-08-11T14:58:39.882Z,29.34
2023-08-11T15:01:24.099Z,29.17
2023-08-11T15:04:08.191Z,28.84
2023-08-11T15:06:52.757Z,29.07
2023-08-11T15:09:38.234Z,29.31
2023-08-11T15:12:24.383Z,28.78
2023-08-11T15:15:09.412Z,28.56
2023-08-11T15:17:53.643Z,28.49
2023-08-11T15:20:37.732Z,28.73
2023-08-11T15:23:21.826Z,28.39
2023-08-11T15:26:06.199Z,28.51
2023-08-11T15:28:51.872Z,28.45
2023-08-11T15:31:36.138Z,28.37
2023-08-11T15:34:20.353Z,28.38
2023-08-11T15:37:04.494Z,28.64
2023-08-11T15:39:48.691Z,28.90
2023-08-11T15:42:32.824Z,28.86
2023-08-11T15:45:18.613Z,28.48
2023-08-11T15:48:02.864Z,28.55
2023-08-11T15:50:47.198Z,28.71
2023-08-11T15:53:31.248Z,28.57
2023-08-11T15:56:15.432Z,28.84
2023-08-11T15:58:59.770Z,28.68
2023-08-11T16:02:03.541Z,28.02
2023-08-11T16:04:53.109Z,28.04
2023-08-11T16:07:37.264Z,28.52
2023-08-11T16:10:21.260Z,28.33
2023-08-11T16:13:08.112Z,28.54
2023-08-11T16:15:53.986Z,28.53
2023-08-11T16:18:39.576Z,28.34
2023-08-11T16:21:23.875Z,27.76
2023-08-11T16:24:08.044Z,28.06
2023-08-11T16:26:52.321Z,28.11
2023-08-11T16:29:42.086Z,28.26
2023-08-11T16:32:26.589Z,27.73
2023-08-11T16:35:12.068Z,27.93
2023-08-11T16:37:56.206Z,27.51
2023-08-11T16:40:40.502Z,27.75
2023-08-11T16:43:24.991Z,27.65
2023-08-11T16:46:09.113Z,27.76
2023-08-11T16:48:53.575Z,27.78
2023-08-11T16:51:39.235Z,27.57
2023-08-11T16:54:23.333Z,27.19
2023-08-11T16:57:07.560Z,27.33
2023-08-11T16:59:51.814Z,27.34
2023-08-11T17:02:36.041Z,27.26
2023-08-11T17:05:20.116Z,27.22
2023-08-11T17:08:06.286Z,26.29
2023-08-11T17:10:50.338Z,25.33
2023-08-11T17:13:34.354Z,25.57
2023-08-11T17:16:20.342Z,25.19
2023-08-11T17:19:04.715Z,24.65
2023-08-11T17:21:49.482Z,25.24
2023-08-11T17:24:35.258Z,25.51
2023-08-11T17:27:19.364Z,25.71
2023-08-11T17:30:03.330Z,25.74
2023-08-11T17:32:49.359Z,25.26
2023-08-11T17:35:33.613Z,24.96
2023-08-11T17:38:17.805Z,24.91
2023-08-11T17:41:03.513Z,24.84
2023-08-11T17:43:47.524Z,25.20
2023-08-11T17:46:31.698Z,24.73
2023-08-11T17:49:15.845Z,24.62
2023-08-11T17:52:00.099Z,24.37
2023-08-11T17:54:44.159Z,24.38
2023-08-11T17:57:29.833Z,24.56
2023-08-11T18:00:15.830Z,24.36
2023-08-11T18:02:59.949Z,24.46
2023-08-11T18:05:44.607Z,24.01
2023-08-11T18:08:28.765Z,23.79
2023-08-11T18:11:12.931Z,23.25
2023-08-11T18:13:58.524Z,22.74
2023-08-11T18:16:42.669Z,22.77
2023-08-11T18:19:26.830Z,22.55
2023-08-11T18:22:11.231Z,22.28
2023-08-11T18:24:55.511Z,22.53
2023-08-11T18:27:39.726Z,22.58
2023-08-11T18:30:25.287Z,22.38
2023-08-11T18:33:09.440Z,22.28
2023-08-11T18:35:53.555Z,22.39
2023-08-11T18:38:37.673Z,22.71
2023-08-11T18:41:21.949Z,22.42
2023-08-11T18:44:06.776Z,22.10
2023-08-11T18:46:52.522Z,22.14
2023-08-11T18:49:36.623Z,22.52
2023-08-11T18:52:21.031Z,22.16
2023-08-11T18:55:05.318Z,22.19
2023-08-11T18:57:49.457Z,22.12
2023-08-11T19:00:33.503Z,21.69
2023-08-11T19:03:19.425Z,22.11
2023-08-11T19:06:03.715Z,22.24
2023-08-11T19:08:47.765Z,22.02
2023-08-11T19:11:31.760Z,21.91
2023-08-11T19:14:15.868Z,21.99
2023-08-11T19:16:59.956Z,21.91
2023-08-11T19:19:48.527Z,21.99
2023-08-11T19:22:32.543Z,21.67
2023-08-11T19:25:16.852Z,21.38
2023-08-11T19:28:01.244Z,21.63
2023-08-11T19:30:45.406Z,21.57
2023-08-11T19:33:29.542Z,21.50
2023-08-11T19:36:15.017Z,21.51
2023-08-11T19:39:00.601Z,21.02
2023-08-11T19:41:44.666Z,21.29
2023-08-11T19:44:28.808Z,21.29
2023-08-11T19:47:12.933Z,21.37
2023-08-11T19:49:57.073Z,21.33
2023-08-11T19:52:42.651Z,21.14
2023-08-11T19:55:26.692Z,21.06
2023-08-11T19:58:10.823Z,20.88
2023-08-11T20:00:54.833Z,21.01
2023-08-11T20:03:38.968Z,21.03
2023-08-11T20:06:23.068Z,21.02
2023-08-11T20:09:09.383Z,21.01
2023-08-11T20:11:53.825Z,21.04
2023-08-11T20:14:37.998Z,20.80
2023-08-11T20:17:22.053Z,20.67
2023-08-11T20:20:07.633Z,20.66
2023-08-11T20:22:51.728Z,20.69
2023-08-11T20:25:37.810Z,20.79
2023-08-11T20:28:25.201Z,20.72
2023-08-11T20:31:09.461Z,20.68
2023-08-11T20:33:53.899Z,20.49
2023-08-11T20:36:37.882Z,20.41
2023-08-11T20:39:23.019Z,20.89
2023-08-11T20:42:08.895Z,20.63
2023-08-11T20:44:53.297Z,20.64
2023-08-11T20:47:37.483Z,20.72
2023-08-11T20:50:21.645Z,20.96
2023-08-11T20:53:06.019Z,20.87
2023-08-11T20:55:50.124Z,20.74
2023-08-11T20:58:35.593Z,20.74
2023-08-11T21:01:19.753Z,20.66
2023-08-11T21:04:03.992Z,20.68
2023-08-11T21:06:48.848Z,20.39
2023-08-11T21:09:34.030Z,20.41
2023-08-11T21:12:18.085Z,20.60
2023-08-11T21:15:04.288Z,20.62
2023-08-11T21:17:49.327Z,20.29
2023-08-11T21:20:33.636Z,20.19
2023-08-11T21:23:20.462Z,20.39
2023-08-11T21:26:05.098Z,20.38
2023-08-11T21:28:49.172Z,20.39
2023-08-11T21:31:34.771Z,20.24
2023-08-11T21:34:19.444Z,20.45
2023-08-11T21:37:03.573Z,20.46
2023-08-11T21:39:47.955Z,20.43
2023-08-11T21:42:32.072Z,20.48
2023-08-11T21:45:16.213Z,20.02
2023-08-11T21:48:01.961Z,20.02
2023-08-11T21:50:46.061Z,20.21
2023-08-11T21:53:30.090Z,20.32
2023-08-11T21:56:14.254Z,20.75
2023-08-11T21:58:58.515Z,20.31
2023-08-11T22:01:43.829Z,20.06
2023-08-11T22:04:29.382Z,20.04
2023-08-11T22:07:14.262Z,20.62
2023-08-11T22:09:58.599Z,20.39
2023-08-11T22:12:42.634Z,20.33
2023-08-11T22:15:26.744Z,20.48
2023-08-11T22:18:10.907Z,20.66
2023-08-11T22:20:56.447Z,20.56
2023-08-11T22:23:40.576Z,20.45
2023-08-11T22:26:24.648Z,20.65
2023-08-11T22:29:08.689Z,20.54
2023-08-11T22:31:52.892Z,20.27
2023-08-11T22:34:37.027Z,20.45
2023-08-11T22:37:24.028Z,20.36
2023-08-11T22:40:09.568Z,20.06
2023-08-11T22:42:53.719Z,20.17
2023-08-11T22:45:37.868Z,20.09
2023-08-11T22:48:22.300Z,19.92
2023-08-11T22:51:06.422Z,20.03
2023-08-11T22:53:52.003Z,20.31
2023-08-11T22:56:36.257Z,20.26
2023-08-11T22:59:21.328Z,20.27
2023-08-11T23:02:05.963Z,20.21
2023-08-11T23:04:51.066Z,20.33
2023-08-11T23:07:35.240Z,20.50
2023-08-11T23:10:20.958Z,20.43
2023-08-11T23:13:05.283Z,20.27
2023-08-11T23:15:49.406Z,20.64
2023-08-11T23:18:33.481Z,20.39
2023-08-11T23:21:17.699Z,20.52
2023-08-11T23:24:01.881Z,20.52
2023-08-11T23:26:47.442Z,20.43
2023-08-11T23:29:31.469Z,20.60
2023-08-11T23:32:15.530Z,20.31
2023-08-11T23:34:59.684Z,20.57
2023-08-11T23:37:43.939Z,20.38
2023-08-11T23:40:28.045Z,20.66
2023-08-11T23:43:13.893Z,20.50
2023-08-11T23:45:58.203Z,20.44
2023-08-11T23:48:43.505Z,20.58
2023-08-11T23:51:28.665Z,20.32
2023-08-11T23:54:12.734Z,20.46
2023-08-11T23:56:56.874Z,20.35
2023-08-11T23:59:42.560Z,20.30
